Time;durP1;ratioP1;P1;durP2;ratioP2;P2;SDS_P1;SDS_P2;PMS_P1;PMS_P2;Temp;Humidity;BMP_temperature;BMP_pressure;BME280_temperature;BME280_humidity;BME280_pressure;Samples;Min_cycle;Max_cycle;Signal;HPM_P1;HPM_P2
2021/05/04 08:05:07;;;;;;;4.70;1.17;;;13.10;99.90;;;;;;4965267;23;20239;-73
2021/05/04 08:07:33;;;;;;;4.13;0.57;;;13.40;99.90;;;;;;4959813;28;20212;-76
2021/05/04 08:10:00;;;;;;;3.20;0.83;;;13.40;99.90;;;;;;4953155;29;20215;-77
2021/05/04 08:12:26;;;;;;;9.23;0.80;;;13.30;99.90;;;;;;4953123;28;20354;-75
2021/05/04 08:14:53;;;;;;;3.60;0.60;;;12.90;99.90;;;;;;4954183;29;20204;-75
2021/05/04 08:17:21;;;;;;;2.67;0.50;;;12.70;99.90;;;;;;4954309;29;20240;-77
2021/05/04 08:19:47;;;;;;;0.87;0.33;;;12.70;99.90;;;;;;4954690;29;20686;-76
2021/05/04 08:22:15;;;;;;;3.23;0.33;;;12.60;99.90;;;;;;4954555;28;20224;-75
2021/05/04 08:24:41;;;;;;;4.37;0.90;;;12.40;99.90;;;;;;4954680;29;20223;-75
2021/05/04 08:27:07;;;;;;;5.10;0.67;;;12.40;99.90;;;;;;4956963;28;20574;-75
2021/05/04 08:29:34;;;;;;;4.20;0.63;;;12.60;99.90;;;;;;4973465;28;20203;-75
2021/05/04 08:32:02;;;;;;;7.03;0.80;;;12.80;99.90;;;;;;4973226;28;20227;-75
2021/05/04 08:34:30;;;;;;;2.93;1.10;;;13.20;99.90;;;;;;4971094;28;20681;-76
2021/05/04 08:36:56;;;;;;;3.67;0.67;;;13.30;99.90;;;;;;4971383;28;20238;-77
2021/05/04 08:39:23;;;;;;;4.17;0.60;;;13.20;99.90;;;;;;4972295;28;20254;-77
2021/05/04 08:41:50;;;;;;;3.73;0.93;;;12.80;99.90;;;;;;4973033;28;20223;-77
2021/05/04 08:44:18;;;;;;;6.93;0.90;;;12.70;99.90;;;;;;4973862;28;20294;-76
2021/05/04 08:46:46;;;;;;;3.87;0.70;;;12.70;99.90;;;;;;4973610;28;20258;-76
2021/05/04 08:49:14;;;;;;;4.67;0.77;;;12.60;99.90;;;;;;4973793;28;20204;-76
2021/05/04 08:51:43;;;;;;;4.33;0.77;;;12.30;99.90;;;;;;4973307;28;20228;-75
2021/05/04 08:54:09;;;;;;;4.30;1.00;;;12.00;99.90;;;;;;4973903;28;20654;-77
2021/05/04 08:56:37;;;;;;;3.90;0.70;;;11.60;99.90;;;;;;4973637;28;20698;-77
2021/05/04 08:59:05;;;;;;;7.07;1.17;;;11.20;99.90;;;;;;4974069;28;20207;-77
2021/05/04 09:01:31;;;;;;;10.03;1.40;;;11.00;99.90;;;;;;4973961;28;20267;-76
2021/05/04 09:04:01;;;;;;;5.27;1.10;;;11.10;99.90;;;;;;4974922;28;20550;-78
2021/05/04 09:06:32;;;;;;;4.13;1.00;;;11.80;99.90;;;;;;4977101;28;20313;-78
2021/05/04 09:09:11;;;;;;;4.17;0.77;;;12.50;99.90;;;;;;4977196;28;20266;-77
2021/05/04 09:14:38;;;;;;;3.50;0.50;;;13.10;99.90;;;;;;4970602;28;20358;-77
2021/05/04 09:17:11;;;;;;;5.67;0.43;;;13.10;99.90;;;;;;4977846;28;20783;-77
2021/05/04 09:19:58;;;;;;;2.37;0.60;;;12.90;99.90;;;;;;4979947;28;20270;-77
2021/05/04 09:22:35;;;;;;;5.13;0.60;;;13.30;99.90;;;;;;4976634;28;20702;-77
2021/05/04 09:25:01;;;;;;;4.80;0.53;;;13.60;99.90;;;;;;4977183;28;20211;-77
2021/05/04 09:27:28;;;;;;;1.73;0.47;;;13.50;99.90;;;;;;4977065;28;20210;-76
2021/05/04 09:29:57;;;;;;;3.77;0.90;;;13.20;99.90;;;;;;4976875;28;20222;-76
2021/05/04 09:32:27;;;;;;;3.23;0.60;;;13.10;99.90;;;;;;4976699;28;20266;-77
2021/05/04 09:34:55;;;;;;;2.13;0.30;;;13.30;99.90;;;;;;4976658;28;20210;-77
2021/05/04 09:37:24;;;;;;;3.13;0.67;;;13.10;99.90;;;;;;4976590;28;20239;-76
2021/05/04 09:39:51;;;;;;;3.27;0.70;;;13.00;99.90;;;;;;4976703;28;20215;-76
2021/05/04 09:42:17;;;;;;;4.53;0.43;;;12.90;99.90;;;;;;4976800;28;20567;-76
2021/05/04 09:44:46;;;;;;;8.87;0.70;;;13.00;99.90;;;;;;4976549;28;20273;-77
2021/05/04 09:47:18;;;;;;;1.37;0.50;;;13.00;99.90;;;;;;4976654;28;20211;-76
2021/05/04 09:49:45;;;;;;;2.20;0.50;;;13.10;99.90;;;;;;4976395;28;20207;-76
2021/05/04 09:52:22;;;;;;;2.07;0.50;;;13.20;99.90;;;;;;4975994;28;20290;-76
2021/05/04 09:54:50;;;;;;;3.67;0.97;;;13.00;99.90;;;;;;4977070;28;20298;-76
2021/05/04 09:57:37;;;;;;;7.30;1.03;;;13.00;99.90;;;;;;4976320;28;20243;-76
2021/05/04 10:00:08;;;;;;;3.47;0.43;;;13.20;99.90;;;;;;4978088;28;20204;-77
2021/05/04 10:02:35;;;;;;;6.03;1.57;;;13.50;99.90;;;;;;4975990;28;20228;-76
2021/05/04 10:05:06;;;;;;;10.30;0.90;;;13.50;99.90;;;;;;4976202;28;20223;-76
2021/05/04 10:07:33;;;;;;;5.63;0.60;;;13.40;99.90;;;;;;4976340;28;20215;-76
2021/05/04 10:10:00;;;;;;;6.07;0.90;;;13.10;99.90;;;;;;4976262;28;20680;-76
2021/05/04 10:12:29;;;;;;;4.50;0.67;;;13.10;99.90;;;;;;4975728;28;20231;-76
2021/05/04 10:15:00;;;;;;;2.57;0.50;;;12.90;99.90;;;;;;4975831;28;20684;-75
2021/05/04 10:17:31;;;;;;;5.00;0.77;;;13.00;99.90;;;;;;4975804;28;20235;-75
2021/05/04 10:19:58;;;;;;;4.20;0.80;;;13.10;99.90;;;;;;4975963;28;20215;-75
2021/05/04 10:22:24;;;;;;;5.97;0.60;;;13.10;99.90;;;;;;4975809;28;20249;-78
2021/05/04 10:24:52;;;;;;;2.57;0.40;;;13.30;99.90;;;;;;4976252;28;20215;-78
2021/05/04 10:27:20;;;;;;;3.57;0.57;;;13.30;99.90;;;;;;4975749;28;20207;-77
2021/05/04 10:29:51;;;;;;;3.27;0.90;;;13.20;99.90;;;;;;4975557;28;20207;-77
2021/05/04 10:32:49;;;;;;;3.67;0.93;;;12.90;99.90;;;;;;4975956;28;20237;-78
2021/05/04 10:35:37;;;;;;;8.30;0.80;;;12.70;99.90;;;;;;4958223;28;20210;-77
2021/05/04 10:38:05;;;;;;;5.20;0.83;;;12.70;99.90;;;;;;4969905;28;20702;-74
2021/05/04 10:40:34;;;;;;;4.40;1.10;;;12.90;99.90;;;;;;4975638;28;20215;-74
2021/05/04 10:43:01;;;;;;;2.17;0.67;;;13.10;99.90;;;;;;4975449;28;20210;-73
2021/05/04 10:45:41;;;;;;;3.00;0.50;;;13.00;99.90;;;;;;4975507;28;20258;-75
2021/05/04 10:48:09;;;;;;;1.93;0.33;;;13.00;99.90;;;;;;4975356;28;20211;-75
2021/05/04 10:50:49;;;;;;;3.27;0.40;;;13.20;99.90;;;;;;4974885;28;20211;-75
2021/05/04 10:53:16;;;;;;;1.40;0.30;;;13.30;99.20;;;;;;4975287;28;20214;-75
2021/05/04 10:56:05;;;;;;;3.53;0.87;;;13.30;99.20;;;;;;4975028;28;20214;-78
2021/05/04 10:58:43;;;;;;;1.50;0.53;;;13.60;99.30;;;;;;4975156;28;20219;-75
2021/05/04 11:01:10;;;;;;;3.77;0.70;;;13.50;98.70;;;;;;4974684;28;20702;-74
2021/05/04 11:03:44;;;;;;;3.80;0.40;;;13.70;99.20;;;;;;4975183;28;20212;-74
2021/05/04 11:06:11;;;;;;;1.97;0.40;;;14.00;98.90;;;;;;4974905;28;20236;-78
2021/05/04 11:09:16;;;;;;;1.40;0.40;;;14.20;98.10;;;;;;4975046;28;20270;-78
2021/05/04 11:11:45;;;;;;;4.13;0.40;;;14.10;98.10;;;;;;4974762;28;20231;-75
2021/05/04 11:14:32;;;;;;;3.47;0.43;;;14.10;98.20;;;;;;4974668;28;20214;-77
2021/05/04 11:17:16;;;;;;;4.03;0.80;;;14.20;98.20;;;;;;4974707;28;20277;-77
2021/05/04 11:19:44;;;;;;;3.17;0.70;;;14.40;98.00;;;;;;4975446;28;20245;-80
2021/05/04 11:22:24;;;;;;;5.87;0.70;;;14.50;97.20;;;;;;4974513;28;20230;-78
2021/05/04 11:24:53;;;;;;;3.60;0.60;;;14.60;97.90;;;;;;4974588;28;20218;-75
2021/05/04 11:27:23;;;;;;;5.43;0.50;;;14.60;98.00;;;;;;4974237;28;20214;-79
2021/05/04 11:29:52;;;;;;;3.00;0.50;;;14.70;97.70;;;;;;4974468;28;20262;-79
2021/05/04 11:32:20;;;;;;;3.27;0.57;;;14.50;97.90;;;;;;4974175;28;20230;-79
2021/05/04 11:34:53;;;;;;;4.93;0.70;;;14.30;98.60;;;;;;4974656;28;20607;-76
2021/05/04 11:37:36;;;;;;;3.90;0.40;;;14.30;98.70;;;;;;4974204;28;20575;-78
2021/05/04 11:40:05;;;;;;;6.97;0.50;;;14.20;98.00;;;;;;4974234;28;20233;-79
2021/05/04 11:42:33;;;;;;;4.83;0.73;;;14.20;97.70;;;;;;4974261;28;20697;-79
2021/05/04 11:45:11;;;;;;;5.63;0.63;;;14.20;97.60;;;;;;4974568;28;20214;-80
2021/05/04 11:47:38;;;;;;;3.27;0.40;;;14.20;97.40;;;;;;4974722;28;20202;-79
2021/05/04 11:50:09;;;;;;;1.50;0.37;;;14.30;97.00;;;;;;4975886;28;20657;-80
2021/05/04 11:52:37;;;;;;;0.90;0.50;;;14.30;96.00;;;;;;4974120;28;20578;-80
2021/05/04 11:55:11;;;;;;;1.20;0.50;;;14.50;96.40;;;;;;4974215;28;20262;-80
2021/05/04 11:57:39;;;;;;;4.17;0.50;;;14.70;95.50;;;;;;4974343;28;20238;-80
2021/05/04 12:00:06;;;;;;;4.23;0.60;;;14.80;95.20;;;;;;4974553;28;20226;-80
2021/05/04 12:02:34;;;;;;;1.50;0.83;;;15.00;95.70;;;;;;4974099;28;20223;-81
2021/05/04 12:05:01;;;;;;;2.93;0.50;;;15.10;95.30;;;;;;4974338;28;20221;-79
2021/05/04 12:07:49;;;;;;;2.63;0.50;;;15.00;94.70;;;;;;4973721;28;20207;-79
2021/05/04 12:10:28;;;;;;;9.17;1.03;;;15.00;94.60;;;;;;4968523;28;20204;-79
2021/05/04 12:12:56;;;;;;;5.97;0.60;;;15.10;95.20;;;;;;4979743;28;20227;-78
2021/05/04 12:15:24;;;;;;;1.40;0.37;;;14.80;94.50;;;;;;4981504;28;20214;-80
2021/05/04 12:17:57;;;;;;;1.10;0.30;;;14.80;94.60;;;;;;4978777;28;20234;-80
2021/05/04 12:20:26;;;;;;;0.53;0.33;;;14.70;94.70;;;;;;4980829;28;20235;-77
2021/05/04 12:22:54;;;;;;;2.57;0.40;;;14.90;94.50;;;;;;4982681;28;20728;-78
2021/05/04 12:25:27;;;;;;;3.40;1.03;;;15.10;94.40;;;;;;4982898;28;20214;-78
2021/05/04 12:27:53;;;;;;;1.40;0.50;;;15.20;94.00;;;;;;4977805;28;20657;-79
2021/05/04 12:30:22;;;;;;;3.40;0.40;;;14.80;93.90;;;;;;4974130;28;20682;-78
2021/05/04 12:32:50;;;;;;;1.37;0.40;;;14.50;94.00;;;;;;4973733;28;20223;-78
2021/05/04 12:35:20;;;;;;;3.43;0.73;;;14.50;94.20;;;;;;4973642;28;20524;-78
2021/05/04 12:37:48;;;;;;;7.33;0.63;;;14.60;94.10;;;;;;4973933;28;20235;-79
2021/05/04 12:40:17;;;;;;;4.33;0.70;;;14.70;94.40;;;;;;4977138;28;20237;-79
2021/05/04 12:42:45;;;;;;;4.30;0.67;;;14.90;94.60;;;;;;4977701;28;20680;-78
2021/05/04 12:45:13;;;;;;;3.07;0.33;;;15.00;94.00;;;;;;4977483;28;20207;-76
2021/05/04 12:47:53;;;;;;;1.30;0.50;;;14.90;94.00;;;;;;4977337;28;20666;-77
2021/05/04 12:50:30;;;;;;;4.63;0.87;;;14.80;93.90;;;;;;4977463;28;20218;-80
2021/05/04 12:52:56;;;;;;;0.93;0.40;;;14.80;93.90;;;;;;4977393;28;20231;-78
2021/05/04 12:55:24;;;;;;;3.93;0.40;;;14.90;94.20;;;;;;4977331;28;20281;-78
2021/05/04 12:58:13;;;;;;;3.27;0.33;;;14.80;93.60;;;;;;4977329;28;20238;-79
2021/05/04 13:00:40;;;;;;;2.60;0.40;;;14.70;94.30;;;;;;4967200;28;20293;-75
2021/05/04 13:03:09;;;;;;;2.67;0.70;;;14.60;93.80;;;;;;4976798;28;20207;-77
2021/05/04 13:05:36;;;;;;;0.80;0.20;;;14.80;94.20;;;;;;4976840;28;20211;-74
2021/05/04 13:08:04;;;;;;;2.60;0.40;;;14.80;93.50;;;;;;4976406;28;20574;-76
2021/05/04 13:10:39;;;;;;;2.40;1.13;;;14.70;93.70;;;;;;4977048;28;20207;-79
2021/05/04 13:13:31;;;;;;;2.30;0.60;;;14.80;93.90;;;;;;4976308;28;20210;-76
2021/05/04 13:16:43;;;;;;;2.10;0.47;;;15.00;93.80;;;;;;4976654;28;20327;-77
2021/05/04 13:30:18;;;;;;;4.23;0.63;;;15.30;93.20;;;;;;4965106;28;20222;-75
2021/05/04 13:32:47;;;;;;;2.73;0.60;;;15.20;92.90;;;;;;4976578;28;20234;-76
2021/05/04 13:35:16;;;;;;;5.00;0.67;;;15.20;93.20;;;;;;4976179;28;20741;-78
2021/05/04 13:37:50;;;;;;;1.23;0.60;;;14.90;93.10;;;;;;4976379;28;20274;-78
2021/05/04 13:40:42;;;;;;;1.73;0.63;;;14.80;93.70;;;;;;4976162;28;20214;-77
2021/05/04 13:48:39;;;;;;;7.23;0.63;;;14.70;93.10;;;;;;4972480;28;20357;-78
2021/05/04 13:51:05;;;;;;;3.50;0.30;;;14.70;92.90;;;;;;4973973;28;20223;-81
2021/05/04 13:53:32;;;;;;;3.17;0.97;;;14.80;93.20;;;;;;4974827;28;20207;-79
2021/05/04 13:56:00;;;;;;;3.73;0.67;;;14.90;93.50;;;;;;4974692;28;20203;-78
2021/05/04 13:58:29;;;;;;;2.47;0.57;;;14.70;93.70;;;;;;4974933;28;20234;-74
2021/05/04 14:01:00;;;;;;;4.83;0.47;;;14.60;93.50;;;;;;4974897;28;20235;-73
2021/05/04 14:03:32;;;;;;;1.33;0.67;;;14.80;94.20;;;;;;4974898;28;20207;-74
2021/05/04 14:14:56;;;;;;;3.53;0.57;;;14.60;93.60;;;;;;4929725;29;20585;-79
2021/05/04 14:28:31;;;;;;;6.13;0.57;;;14.80;92.80;;;;;;4964924;28;20199;-75
2021/05/04 14:30:58;;;;;;;2.47;0.47;;;15.00;93.30;;;;;;4973637;28;20745;-80
2021/05/04 14:33:24;;;;;;;4.00;0.30;;;15.10;94.00;;;;;;4973863;28;20207;-77
2021/05/04 14:35:53;;;;;;;3.43;1.03;;;15.20;93.40;;;;;;4974840;28;20219;-81
2021/05/04 14:38:28;;;;;;;1.43;0.47;;;14.90;92.70;;;;;;4975487;28;20241;-82
2021/05/04 14:41:14;;;;;;;3.93;0.40;;;14.70;93.10;;;;;;4975292;28;20325;-79
2021/05/04 14:44:03;;;;;;;4.10;0.90;;;14.70;93.50;;;;;;4974932;28;20642;-82
2021/05/04 14:58:02;;;;;;;7.20;1.10;;;14.80;93.00;;;;;;4975384;28;20241;-87
2021/05/04 15:03:16;;;;;;;0.83;0.30;;;15.10;93.00;;;;;;4968524;28;20286;-85
2021/05/04 15:05:43;;;;;;;1.97;0.40;;;14.90;92.40;;;;;;4975086;28;20301;-85
2021/05/04 15:08:09;;;;;;;1.87;0.80;;;15.00;92.70;;;;;;4977361;28;20207;-83
2021/05/04 15:10:35;;;;;;;1.80;0.40;;;15.10;92.70;;;;;;4977159;28;20218;-87
2021/05/04 15:13:07;;;;;;;1.70;0.57;;;15.10;92.00;;;;;;4975953;28;20211;-88
2021/05/04 15:15:42;;;;;;;1.90;0.40;;;15.00;92.20;;;;;;4975202;28;20219;-82
2021/05/04 15:18:16;;;;;;;6.57;0.50;;;15.00;93.00;;;;;;4975837;28;20238;-86
2021/05/04 15:21:21;;;;;;;3.47;0.70;;;15.10;92.20;;;;;;4975326;28;20211;-86
2021/05/04 15:23:47;;;;;;;3.13;0.53;;;15.10;92.50;;;;;;4976456;28;20214;-85
2021/05/04 15:26:13;;;;;;;4.63;0.47;;;14.90;92.80;;;;;;4975992;28;20219;-88
2021/05/04 15:28:40;;;;;;;2.87;0.53;;;14.70;92.60;;;;;;4975840;28;20277;-86
2021/05/04 15:31:06;;;;;;;3.50;0.70;;;14.60;92.80;;;;;;4975717;28;20231;-88
2021/05/04 15:33:37;;;;;;;4.00;0.50;;;14.60;92.80;;;;;;4975856;28;20674;-84
2021/05/04 15:36:04;;;;;;;0.93;0.50;;;14.70;92.90;;;;;;4975922;28;20274;-81
2021/05/04 15:38:31;;;;;;;3.63;0.50;;;14.70;92.90;;;;;;4976432;28;20239;-85
2021/05/04 15:40:57;;;;;;;4.43;0.77;;;14.60;92.60;;;;;;4976386;28;20233;-86
2021/05/04 15:43:23;;;;;;;4.63;0.77;;;14.50;93.10;;;;;;4976094;28;20206;-85
2021/05/04 15:46:04;;;;;;;4.63;0.70;;;14.30;93.00;;;;;;4975978;28;20354;-87
2021/05/04 15:48:34;;;;;;;5.37;0.53;;;14.30;93.40;;;;;;4975760;28;20207;-84
2021/05/04 15:51:12;;;;;;;2.07;0.70;;;14.40;93.70;;;;;;4975281;28;20227;-84
2021/05/04 15:53:59;;;;;;;1.57;0.50;;;14.30;93.10;;;;;;4975357;28;20218;-87
2021/05/04 16:02:08;;;;;;;1.60;0.40;;;14.50;93.10;;;;;;4975223;28;20278;-85
2021/05/04 16:07:20;;;;;;;4.43;0.73;;;14.50;93.20;;;;;;4975173;28;20294;-87
2021/05/04 16:09:48;;;;;;;1.43;0.43;;;14.30;92.50;;;;;;4975509;28;20211;-86
2021/05/04 16:12:15;;;;;;;4.80;0.67;;;14.40;93.00;;;;;;4975346;28;20234;-88
2021/05/04 16:14:41;;;;;;;2.80;0.57;;;14.50;92.70;;;;;;4979123;28;20261;-85
2021/05/04 16:17:08;;;;;;;3.17;0.60;;;14.60;93.10;;;;;;4978968;28;20606;-87
2021/05/04 16:19:36;;;;;;;1.63;0.60;;;14.60;92.90;;;;;;4979238;28;20674;-88
2021/05/04 16:22:04;;;;;;;4.77;0.53;;;14.50;92.70;;;;;;4978893;28;20245;-86
2021/05/04 16:24:36;;;;;;;2.13;0.40;;;14.50;92.90;;;;;;4978885;28;20222;-85
2021/05/04 16:27:13;;;;;;;1.93;0.60;;;14.30;92.80;;;;;;4973242;28;20211;-78
2021/05/04 16:29:52;;;;;;;4.03;0.50;;;14.20;93.10;;;;;;4977528;28;20637;-76
2021/05/04 16:32:19;;;;;;;5.67;0.73;;;14.20;93.20;;;;;;4977636;28;20226;-79
2021/05/04 16:34:45;;;;;;;2.10;0.50;;;14.10;92.80;;;;;;4977787;28;20615;-78
2021/05/04 16:37:11;;;;;;;5.23;2.90;;;14.20;92.90;;;;;;4976740;28;20642;-77
2021/05/04 16:39:38;;;;;;;1.27;0.30;;;13.90;93.70;;;;;;4977098;28;20536;-79
2021/05/04 16:42:05;;;;;;;0.20;0.20;;;13.20;94.90;;;;;;4976728;28;20227;-78
2021/05/04 16:44:32;;;;;;;0.40;0.37;;;12.70;95.90;;;;;;4977126;28;20206;-76
2021/05/04 16:46:58;;;;;;;0.60;0.30;;;12.30;96.60;;;;;;4976727;28;20219;-77
2021/05/04 16:49:27;;;;;;;0.60;0.20;;;12.10;97.90;;;;;;4976463;28;20207;-76
2021/05/04 16:51:56;;;;;;;0.33;0.20;;;11.90;97.80;;;;;;4976067;28;20223;-76
2021/05/04 16:54:23;;;;;;;1.13;0.50;;;11.90;98.40;;;;;;4975446;28;20207;-76
2021/05/04 16:56:50;;;;;;;3.03;0.50;;;12.00;98.20;;;;;;4975708;28;20219;-76
2021/05/04 16:59:17;;;;;;;0.40;0.20;;;11.90;98.30;;;;;;4975833;28;20204;-75
2021/05/04 17:01:44;;;;;;;1.70;0.40;;;12.10;98.30;;;;;;4975724;28;20289;-75
2021/05/04 17:04:10;;;;;;;3.43;0.37;;;12.20;98.20;;;;;;4975413;28;20211;-76
2021/05/04 17:06:41;;;;;;;1.40;0.40;;;12.20;98.30;;;;;;4975427;28;20732;-77
2021/05/04 17:09:26;;;;;;;1.53;0.60;;;12.30;98.80;;;;;;4976930;28;20621;-79
2021/05/04 17:11:52;;;;;;;1.20;0.40;;;12.20;98.60;;;;;;4976663;28;20234;-79
2021/05/04 17:14:19;;;;;;;3.23;0.60;;;12.30;97.60;;;;;;4977319;28;20210;-80
2021/05/04 17:16:46;;;;;;;2.97;0.80;;;12.40;96.80;;;;;;4976675;28;20270;-82
2021/05/04 17:19:12;;;;;;;2.23;0.57;;;12.60;96.10;;;;;;4977212;28;20238;-80
2021/05/04 17:21:38;;;;;;;3.00;0.60;;;12.80;96.10;;;;;;4976651;28;20707;-79
2021/05/04 17:24:06;;;;;;;5.07;0.60;;;12.90;95.60;;;;;;4976031;28;20546;-84
2021/05/04 17:26:33;;;;;;;1.17;0.90;;;13.20;95.70;;;;;;4976282;28;20282;-82
2021/05/04 17:29:00;;;;;;;3.27;0.40;;;13.30;95.20;;;;;;4976861;28;20246;-83
2021/05/04 17:31:27;;;;;;;1.10;0.43;;;13.40;95.10;;;;;;4977071;28;20232;-81
2021/05/04 17:33:53;;;;;;;2.77;1.53;;;13.30;94.60;;;;;;4976777;28;20207;-82
2021/05/04 17:36:20;;;;;;;2.37;0.53;;;13.10;94.60;;;;;;4976413;28;20211;-82
2021/05/04 17:38:51;;;;;;;4.80;0.77;;;13.00;95.10;;;;;;4977944;28;20238;-80
2021/05/04 17:41:17;;;;;;;4.03;0.63;;;13.10;95.60;;;;;;4977244;28;20258;-80
2021/05/04 17:43:43;;;;;;;3.37;0.50;;;13.10;95.60;;;;;;4977191;28;20246;-81
2021/05/04 17:46:10;;;;;;;4.90;0.80;;;13.20;95.60;;;;;;4976484;28;20666;-79
2021/05/04 17:48:37;;;;;;;4.93;0.87;;;13.20;95.10;;;;;;4976812;28;20618;-84
2021/05/04 17:51:04;;;;;;;2.77;1.20;;;13.20;95.00;;;;;;4976261;28;20223;-81
2021/05/04 17:53:30;;;;;;;7.37;0.70;;;13.20;95.20;;;;;;4976290;28;20211;-82
2021/05/04 17:55:57;;;;;;;3.80;0.60;;;13.10;95.20;;;;;;4976699;28;20705;-80
2021/05/04 17:58:23;;;;;;;1.67;0.77;;;13.10;95.20;;;;;;4976063;28;20235;-80
2021/05/04 18:00:50;;;;;;;2.73;0.53;;;13.10;95.20;;;;;;4975926;28;20211;-79
2021/05/04 18:03:16;;;;;;;2.20;0.67;;;13.10;95.10;;;;;;4976268;28;20302;-79
2021/05/04 18:05:48;;;;;;;1.17;0.43;;;13.00;95.90;;;;;;4975678;28;20306;-81
2021/05/04 18:08:14;;;;;;;2.97;1.00;;;12.90;96.80;;;;;;4976176;28;20207;-79
2021/05/04 18:10:40;;;;;;;1.10;0.60;;;12.50;97.80;;;;;;4975714;28;20666;-78
2021/05/04 18:13:23;;;;;;;4.07;1.70;;;12.30;98.00;;;;;;4976133;28;20209;-81
2021/05/04 18:21:19;;;;;;;1.33;0.60;;;11.80;99.30;;;;;;4975363;28;20284;-78
2021/05/04 18:23:45;;;;;;;0.73;0.30;;;11.80;99.60;;;;;;4975786;28;20207;-78
2021/05/04 18:26:12;;;;;;;6.90;0.77;;;11.70;99.90;;;;;;4975717;28;20207;-81
2021/05/04 18:28:41;;;;;;;1.90;0.50;;;11.40;99.90;;;;;;4975807;28;20222;-79
2021/05/04 18:31:10;;;;;;;1.03;0.40;;;11.20;99.90;;;;;;4975647;28;20249;-83
2021/05/04 18:33:38;;;;;;;1.53;0.60;;;11.00;99.90;;;;;;4975821;28;20243;-79
2021/05/04 18:36:11;;;;;;;2.80;0.73;;;10.80;99.90;;;;;;4974730;28;20204;-78
2021/05/04 18:38:46;;;;;;;3.10;0.40;;;10.70;99.90;;;;;;4975513;28;20528;-80
2021/05/04 18:47:05;;;;;;;1.77;1.03;;;10.30;99.90;;;;;;4975106;28;20682;-84
2021/05/04 19:03:49;;;;;;;1.03;0.60;;;10.30;99.90;;;;;;4975006;28;20570;-79
2021/05/04 19:06:44;;;;;;;1.20;0.50;;;10.30;99.90;;;;;;4974395;28;20214;-80
2021/05/04 19:09:45;;;;;;;0.40;0.30;;;10.30;99.90;;;;;;4974968;28;20215;-80
2021/05/04 19:23:38;;;;;;;1.07;0.67;;;10.30;99.90;;;;;;4974790;28;20254;-80
2021/05/04 19:29:10;;;;;;;0.83;0.40;;;10.30;99.90;;;;;;4974506;28;20237;-79
2021/05/04 20:07:39;;;;;;;1.23;0.50;;;10.40;99.90;;;;;;4973958;28;20210;-81
2021/05/04 20:10:20;;;;;;;2.30;0.60;;;10.30;99.90;;;;;;4974167;28;20298;-84
2021/05/04 20:12:46;;;;;;;5.13;0.60;;;10.30;99.90;;;;;;4974021;28;20226;-83
2021/05/04 20:15:13;;;;;;;0.70;0.47;;;10.20;99.90;;;;;;4973980;28;20211;-81
2021/05/04 20:17:44;;;;;;;1.93;0.40;;;10.10;99.90;;;;;;4973857;28;20690;-82
2021/05/04 20:20:18;;;;;;;1.40;0.60;;;10.20;99.90;;;;;;4974192;28;20207;-82
2021/05/04 20:22:44;;;;;;;3.80;0.50;;;10.10;99.90;;;;;;4973966;28;20233;-81
2021/05/04 20:25:14;;;;;;;4.07;0.70;;;10.20;99.90;;;;;;4974033;28;20682;-80
2021/05/04 20:27:41;;;;;;;2.33;0.50;;;10.20;99.90;;;;;;4974278;28;20215;-81
2021/05/04 20:30:09;;;;;;;1.00;0.47;;;10.30;99.90;;;;;;4975109;28;20203;-79
2021/05/04 20:32:36;;;;;;;0.83;0.47;;;10.30;99.90;;;;;;4974087;28;20267;-81
2021/05/04 20:35:09;;;;;;;0.70;0.50;;;10.40;99.90;;;;;;4974194;28;20210;-81
2021/05/04 20:37:35;;;;;;;1.40;0.40;;;10.40;99.90;;;;;;4974026;28;20235;-79
2021/05/04 20:40:02;;;;;;;2.43;0.57;;;10.40;99.90;;;;;;4973793;28;20218;-80
2021/05/04 20:42:29;;;;;;;0.73;0.50;;;10.30;99.90;;;;;;4974205;28;20239;-84
2021/05/04 20:44:57;;;;;;;1.07;0.33;;;10.20;99.90;;;;;;4972987;28;20305;-80
